createdAt,value
2023-01-25T00:21:45.957Z,6.70
2023-01-25T00:24:31.681Z,6.50
2023-01-25T00:27:17.239Z,6.60
2023-01-25T00:30:03.134Z,6.40
2023-01-25T00:43:53.140Z,6.20
2023-01-25T01:00:28.892Z,5.90
2023-01-25T01:06:05.565Z,5.90
2023-01-25T01:11:37.160Z,5.90
2023-01-25T01:14:23.576Z,5.90
2023-01-25T01:17:09.303Z,5.90
2023-01-25T01:19:54.881Z,6.00
2023-01-25T01:22:40.430Z,5.70
2023-01-25T01:25:26.282Z,5.80
2023-01-25T01:28:11.997Z,5.70
2023-01-25T01:31:01.295Z,5.50
2023-01-25T01:33:50.952Z,5.60
2023-01-25T01:36:36.658Z,5.50
2023-01-25T01:39:22.419Z,5.50
2023-01-25T01:42:08.076Z,5.50
2023-01-25T01:44:55.985Z,5.70
2023-01-25T01:47:47.119Z,5.60
2023-01-25T01:50:33.360Z,5.40
2023-01-25T01:53:19.775Z,5.50
2023-01-25T01:56:07.486Z,5.40
2023-01-25T01:58:53.902Z,5.40
2023-01-25T02:01:39.796Z,5.40
2023-01-25T02:04:27.067Z,5.30
2023-01-25T02:07:15.718Z,5.50
2023-01-25T02:10:05.743Z,5.80
2023-01-25T02:12:52.760Z,5.70
2023-01-25T02:15:44.608Z,5.60
2023-01-25T02:18:30.431Z,5.50
2023-01-25T02:21:15.801Z,5.40
2023-01-25T02:24:04.782Z,5.40
2023-01-25T02:26:50.118Z,5.30
2023-01-25T02:29:36.457Z,5.30
2023-01-25T02:32:21.683Z,5.30
2023-01-25T02:35:07.761Z,5.30
2023-01-25T02:37:54.973Z,5.40
2023-01-25T02:40:52.658Z,5.40
2023-01-25T02:43:38.466Z,5.50
2023-01-25T02:46:27.503Z,5.60
2023-01-25T02:49:13.958Z,5.70
2023-01-25T02:51:59.774Z,5.70
2023-01-25T02:54:45.836Z,5.80
2023-01-25T02:57:31.346Z,5.60
2023-01-25T03:00:17.732Z,5.50
2023-01-25T03:03:04.715Z,5.30
2023-01-25T03:05:50.247Z,5.20
2023-01-25T03:08:35.920Z,5.40
2023-01-25T03:11:21.598Z,5.50
2023-01-25T03:14:07.168Z,5.50
2023-01-25T03:16:52.976Z,5.40
2023-01-25T03:19:41.683Z,5.40
2023-01-25T03:22:27.252Z,5.20
2023-01-25T03:25:12.997Z,6.30
2023-01-25T03:28:07.284Z,7.50
2023-01-25T03:30:53.367Z,8.70
2023-01-25T03:33:40.032Z,9.40
2023-01-25T03:36:26.392Z,10.10
2023-01-25T03:39:11.833Z,10.60
2023-01-25T03:42:02.024Z,11.00
2023-01-25T03:44:47.816Z,11.30
2023-01-25T03:47:33.462Z,11.60
2023-01-25T03:50:19.146Z,11.80
2023-01-25T03:53:10.231Z,12.00
2023-01-25T03:55:56.605Z,12.10
2023-01-25T03:58:42.232Z,12.20
2023-01-25T04:01:28.067Z,12.30
2023-01-25T04:04:13.373Z,12.40
2023-01-25T04:07:02.019Z,12.50
2023-01-25T04:09:50.249Z,12.50
2023-01-25T04:12:37.170Z,12.60
2023-01-25T04:15:22.842Z,12.60
2023-01-25T04:18:08.577Z,12.70
2023-01-25T04:20:55.073Z,12.70
2023-01-25T04:23:40.480Z,12.80
2023-01-25T04:26:26.258Z,12.80
2023-01-25T04:29:16.533Z,12.90
2023-01-25T04:32:02.301Z,12.90
2023-01-25T04:34:48.002Z,13.00
2023-01-25T04:37:37.852Z,13.00
2023-01-25T04:40:23.424Z,13.00
2023-01-25T04:43:09.259Z,13.10
2023-01-25T04:45:55.340Z,13.10
2023-01-25T04:48:47.689Z,13.10
2023-01-25T04:51:34.851Z,13.20
2023-01-25T04:54:20.932Z,13.20
2023-01-25T04:57:06.728Z,13.20
2023-01-25T04:59:52.787Z,13.20
2023-01-25T05:02:40.996Z,13.30
2023-01-25T05:05:26.621Z,13.20
2023-01-25T05:08:13.164Z,13.30
2023-01-25T05:10:58.834Z,13.30
2023-01-25T05:13:47.015Z,13.30
2023-01-25T05:16:39.356Z,13.20
2023-01-25T05:19:26.415Z,13.20
2023-01-25T05:22:18.127Z,13.20
2023-01-25T05:25:27.536Z,13.20
2023-01-25T05:28:13.625Z,13.30
2023-01-25T05:31:18.624Z,13.30
2023-01-25T05:34:04.725Z,13.40
2023-01-25T05:36:50.377Z,13.40
2023-01-25T05:39:36.367Z,13.40
2023-01-25T05:42:22.156Z,13.50
2023-01-25T05:45:08.988Z,13.40
2023-01-25T05:47:57.875Z,13.40
2023-01-25T05:50:43.775Z,13.50
2023-01-25T05:53:33.863Z,13.50
2023-01-25T05:56:19.534Z,13.50
2023-01-25T05:59:05.397Z,13.50
2023-01-25T06:01:52.615Z,13.50
2023-01-25T06:04:37.989Z,13.50
2023-01-25T06:07:24.827Z,13.50
2023-01-25T06:10:10.738Z,13.60
2023-01-25T06:12:59.440Z,13.60
2023-01-25T06:15:52.441Z,13.60
2023-01-25T06:18:56.513Z,13.60
2023-01-25T06:22:03.962Z,13.70
2023-01-25T06:24:49.673Z,13.70
2023-01-25T06:27:35.243Z,13.70
2023-01-25T06:30:21.018Z,13.70
2023-01-25T06:33:06.628Z,13.70
2023-01-25T06:35:52.509Z,13.80
2023-01-25T06:38:38.225Z,13.80
2023-01-25T06:41:23.759Z,13.80
2023-01-25T06:44:09.530Z,13.90
2023-01-25T06:46:55.493Z,13.90
2023-01-25T06:49:41.296Z,13.90
2023-01-25T06:52:26.805Z,11.50
2023-01-25T06:55:14.050Z,14.00
2023-01-25T06:58:00.643Z,14.00
2023-01-25T07:00:46.337Z,14.00
2023-01-25T07:03:32.687Z,14.10
2023-01-25T07:06:19.015Z,14.30
2023-01-25T07:09:06.059Z,14.40
2023-01-25T07:11:51.487Z,14.50
2023-01-25T07:14:36.903Z,14.60
2023-01-25T07:17:22.540Z,14.70
2023-01-25T07:20:08.600Z,14.80
2023-01-25T07:22:54.197Z,14.90
2023-01-25T07:25:47.078Z,15.00
2023-01-25T07:28:33.111Z,15.10
2023-01-25T07:31:20.178Z,15.10
2023-01-25T07:34:07.154Z,15.20
2023-01-25T07:36:52.748Z,15.30
2023-01-25T07:39:38.678Z,15.30
2023-01-25T07:42:25.293Z,15.40
2023-01-25T07:45:32.781Z,15.40
2023-01-25T07:48:19.086Z,15.60
2023-01-25T07:51:13.162Z,15.50
2023-01-25T07:54:00.472Z,15.60
2023-01-25T07:56:45.770Z,15.60
2023-01-25T07:59:32.599Z,15.60
2023-01-25T08:02:18.325Z,15.70
2023-01-25T08:05:05.159Z,15.70
2023-01-25T08:07:50.751Z,15.80
2023-01-25T08:10:47.633Z,15.80
2023-01-25T08:13:32.925Z,15.80
2023-01-25T08:16:20.188Z,15.90
2023-01-25T08:19:05.880Z,15.90
2023-01-25T08:21:51.381Z,15.90
2023-01-25T08:24:36.810Z,15.90
2023-01-25T08:27:22.591Z,15.90
2023-01-25T08:30:08.769Z,15.90
2023-01-25T08:32:54.623Z,15.90
2023-01-25T08:35:39.858Z,15.90
2023-01-25T08:38:25.397Z,15.90
2023-01-25T08:41:12.651Z,15.90
2023-01-25T08:43:58.595Z,15.90
2023-01-25T08:46:46.285Z,15.80
2023-01-25T08:49:34.477Z,15.80
2023-01-25T08:52:21.838Z,15.70
2023-01-25T08:55:08.371Z,15.70
2023-01-25T08:57:55.785Z,15.60
2023-01-25T09:00:42.572Z,15.70
2023-01-25T09:03:28.301Z,15.70
2023-01-25T09:06:13.587Z,15.60
2023-01-25T09:09:00.276Z,15.60
2023-01-25T09:11:45.892Z,15.60
2023-01-25T09:14:31.667Z,15.70
2023-01-25T09:17:17.386Z,15.70
2023-01-25T09:20:03.042Z,15.70
2023-01-25T09:22:48.876Z,15.60
2023-01-25T09:25:35.744Z,15.50
2023-01-25T09:28:21.343Z,15.50
2023-01-25T09:31:20.866Z,15.50
2023-01-25T09:34:27.567Z,15.50
2023-01-25T09:37:12.958Z,15.50
2023-01-25T09:39:58.635Z,15.50
2023-01-25T09:42:44.326Z,15.50
2023-01-25T09:45:36.662Z,15.60
2023-01-25T09:48:28.812Z,15.50
2023-01-25T09:51:17.268Z,15.50
2023-01-25T09:54:04.227Z,15.50
2023-01-25T09:56:50.928Z,15.50
2023-01-25T09:59:36.389Z,15.50
2023-01-25T10:02:28.341Z,15.50
2023-01-25T10:05:16.938Z,15.50
2023-01-25T10:08:14.754Z,15.60
2023-01-25T10:11:05.075Z,15.50
2023-01-25T10:13:50.737Z,15.60
2023-01-25T10:16:43.641Z,15.60
2023-01-25T10:19:32.393Z,15.60
2023-01-25T10:22:26.219Z,15.60
2023-01-25T10:25:26.186Z,15.50
2023-01-25T10:28:18.097Z,15.60
2023-01-25T10:31:11.534Z,15.60
2023-01-25T10:33:57.380Z,15.60
2023-01-25T10:36:44.156Z,15.60
2023-01-25T10:39:30.373Z,15.60
2023-01-25T10:42:16.525Z,15.80
2023-01-25T10:45:02.270Z,15.70
2023-01-25T10:47:52.815Z,15.60
2023-01-25T10:50:47.520Z,15.60
2023-01-25T10:53:34.981Z,15.60
2023-01-25T10:56:25.160Z,15.70
2023-01-25T10:59:16.928Z,15.70
2023-01-25T11:02:33.119Z,15.70
2023-01-25T11:05:18.779Z,15.60
2023-01-25T11:08:23.249Z,15.60
2023-01-25T11:11:15.028Z,15.50
2023-01-25T11:14:00.890Z,15.50
2023-01-25T11:16:48.292Z,15.60
2023-01-25T11:19:38.410Z,15.60
2023-01-25T11:22:24.560Z,15.50
2023-01-25T11:25:30.437Z,13.30
2023-01-25T11:28:15.862Z,15.50
2023-01-25T11:31:01.565Z,15.40
2023-01-25T11:33:47.355Z,15.40
2023-01-25T11:36:32.817Z,15.40
2023-01-25T11:39:24.731Z,15.40
2023-01-25T11:42:27.372Z,15.40
2023-01-25T11:45:24.973Z,15.40
2023-01-25T11:48:10.591Z,15.40
2023-01-25T11:51:06.004Z,15.30
2023-01-25T11:53:57.945Z,15.40
2023-01-25T11:57:12.340Z,15.40
2023-01-25T11:59:57.849Z,15.40
2023-01-25T12:02:53.010Z,15.50
2023-01-25T12:05:57.337Z,15.50
2023-01-25T12:08:54.590Z,15.50
2023-01-25T12:11:44.913Z,15.50
2023-01-25T12:14:36.424Z,15.60
2023-01-25T12:17:37.194Z,15.60
2023-01-25T12:20:25.867Z,15.60
2023-01-25T12:23:17.217Z,15.60
2023-01-25T12:26:41.582Z,15.60
2023-01-25T12:29:32.529Z,15.60
2023-01-25T12:32:23.821Z,15.70
2023-01-25T12:35:18.371Z,15.70
2023-01-25T12:38:06.573Z,15.60
2023-01-25T12:40:55.114Z,15.60
2023-01-25T12:43:45.001Z,15.60
2023-01-25T12:46:42.630Z,15.60
2023-01-25T12:49:38.184Z,15.60
2023-01-25T12:52:34.469Z,15.60
2023-01-25T12:55:19.886Z,15.70
2023-01-25T12:58:08.332Z,15.60
2023-01-25T13:00:56.952Z,15.50
2023-01-25T13:03:54.877Z,15.50
2023-01-25T13:06:47.489Z,15.50
2023-01-25T13:09:39.607Z,15.60
2023-01-25T13:12:25.851Z,15.60
2023-01-25T13:15:31.116Z,15.50
2023-01-25T13:18:29.295Z,15.60
2023-01-25T13:21:33.462Z,16.80
2023-01-25T13:24:26.407Z,15.70
2023-01-25T13:27:25.248Z,13.30
2023-01-25T13:30:29.731Z,15.60
2023-01-25T13:33:31.857Z,15.60
2023-01-25T13:36:35.958Z,15.70
2023-01-25T13:39:24.561Z,15.70
2023-01-25T13:42:10.252Z,15.80
2023-01-25T13:44:57.275Z,15.80
2023-01-25T13:47:43.290Z,15.80
2023-01-25T13:50:34.271Z,15.80
2023-01-25T13:53:21.544Z,15.80
2023-01-25T13:56:24.225Z,15.80
2023-01-25T13:59:28.371Z,15.80
2023-01-25T14:02:18.569Z,15.70
2023-01-25T14:05:08.139Z,15.80
2023-01-25T14:07:56.232Z,15.70
2023-01-25T14:10:44.229Z,15.80
2023-01-25T14:13:29.907Z,15.70
2023-01-25T14:16:17.944Z,15.80
2023-01-25T14:19:23.370Z,15.80
2023-01-25T14:22:22.197Z,15.70
2023-01-25T14:25:22.458Z,15.70
2023-01-25T14:28:12.464Z,15.80
2023-01-25T14:30:59.207Z,15.80
2023-01-25T14:33:47.792Z,15.80
2023-01-25T14:36:34.743Z,15.80
2023-01-25T14:39:28.226Z,15.80
2023-01-25T14:42:14.376Z,15.80
2023-01-25T14:44:59.757Z,15.80
2023-01-25T14:47:58.252Z,15.80
2023-01-25T14:50:44.974Z,15.80
2023-01-25T14:53:30.739Z,15.90
2023-01-25T14:56:19.197Z,15.90
2023-01-25T14:59:05.081Z,15.90
2023-01-25T15:01:52.571Z,15.90
2023-01-25T15:04:38.212Z,15.90
2023-01-25T15:07:33.465Z,15.80
2023-01-25T15:10:19.310Z,15.80
2023-01-25T15:13:13.714Z,15.70
2023-01-25T15:16:01.124Z,15.70
2023-01-25T15:18:51.230Z,15.80
2023-01-25T15:21:36.639Z,15.60
2023-01-25T15:24:23.633Z,15.80
2023-01-25T15:27:10.635Z,15.80
2023-01-25T15:29:56.128Z,15.80
2023-01-25T15:32:41.818Z,15.80
2023-01-25T15:35:27.810Z,15.90
2023-01-25T15:38:13.622Z,15.90
2023-01-25T15:41:01.537Z,15.90
2023-01-25T15:43:47.215Z,15.80
2023-01-25T15:46:33.639Z,15.80
2023-01-25T15:49:23.193Z,15.70
2023-01-25T15:52:09.919Z,15.80
2023-01-25T15:55:01.439Z,15.80
2023-01-25T15:57:47.835Z,15.80
2023-01-25T16:00:33.586Z,15.70
2023-01-25T16:03:21.767Z,15.70
2023-01-25T16:06:17.218Z,15.70
2023-01-25T16:09:12.074Z,15.80
2023-01-25T16:11:58.959Z,15.80
2023-01-25T16:14:44.572Z,15.80
2023-01-25T16:17:30.609Z,15.80
2023-01-25T16:20:17.133Z,15.70
2023-01-25T16:23:02.588Z,15.70
2023-01-25T16:25:48.511Z,15.80
2023-01-25T16:28:34.049Z,15.80
2023-01-25T16:31:31.818Z,15.80
2023-01-25T16:34:18.130Z,15.80
2023-01-25T16:37:03.829Z,15.80
2023-01-25T16:39:51.838Z,15.80
2023-01-25T16:42:37.300Z,15.90
2023-01-25T16:45:24.185Z,15.90
2023-01-25T16:48:13.494Z,15.90
2023-01-25T16:50:59.301Z,15.90
2023-01-25T16:53:45.608Z,15.90
2023-01-25T16:56:32.967Z,16.00
2023-01-25T16:59:19.466Z,16.00
2023-01-25T17:02:05.292Z,16.00
2023-01-25T17:04:50.793Z,16.10
2023-01-25T17:07:36.637Z,16.10
2023-01-25T17:10:21.953Z,16.10
2023-01-25T17:13:08.785Z,16.10
2023-01-25T17:15:55.823Z,16.10
2023-01-25T17:18:41.476Z,16.10
2023-01-25T17:21:27.637Z,17.80
2023-01-25T17:24:14.359Z,16.10
2023-01-25T17:27:01.104Z,16.00
2023-01-25T17:29:47.001Z,16.00
2023-01-25T17:32:32.941Z,16.00
2023-01-25T17:35:18.685Z,16.00
2023-01-25T17:38:04.360Z,16.00
2023-01-25T17:40:50.256Z,16.00
2023-01-25T17:43:35.729Z,15.90
2023-01-25T17:46:33.130Z,15.90
2023-01-25T17:49:19.246Z,16.00
2023-01-25T17:52:05.119Z,15.90
2023-01-25T17:54:50.417Z,15.90
2023-01-25T17:57:37.538Z,15.90
2023-01-25T18:00:23.225Z,16.00
2023-01-25T18:03:08.626Z,16.00
2023-01-25T18:05:58.238Z,16.00
2023-01-25T18:08:48.228Z,16.00
2023-01-25T18:11:34.743Z,16.00
2023-01-25T18:14:20.502Z,16.10
2023-01-25T18:17:06.156Z,16.00
2023-01-25T18:19:51.805Z,16.10
2023-01-25T18:22:37.090Z,16.10
2023-01-25T18:25:33.853Z,16.10
2023-01-25T18:28:19.595Z,16.10
2023-01-25T18:31:06.206Z,16.00
2023-01-25T18:33:51.923Z,16.00
2023-01-25T18:36:37.837Z,16.00
2023-01-25T18:39:23.416Z,16.10
2023-01-25T18:42:09.263Z,16.10
2023-01-25T18:44:54.928Z,16.00
2023-01-25T18:47:40.587Z,16.00
2023-01-25T18:50:26.541Z,16.00
2023-01-25T18:53:11.989Z,16.00
2023-01-25T18:56:01.995Z,16.00
2023-01-25T18:58:47.940Z,16.00
2023-01-25T19:01:33.262Z,16.00
2023-01-25T19:04:18.935Z,16.00
2023-01-25T19:07:04.833Z,16.00
2023-01-25T19:09:50.204Z,16.00
2023-01-25T19:12:36.105Z,16.00
2023-01-25T19:15:21.482Z,16.00
2023-01-25T19:18:07.243Z,15.80
2023-01-25T19:20:53.020Z,15.90
2023-01-25T19:23:39.441Z,15.80
2023-01-25T19:26:25.376Z,15.80
2023-01-25T19:29:13.335Z,15.80
2023-01-25T19:31:58.663Z,15.90
2023-01-25T19:34:44.515Z,15.90
2023-01-25T19:37:30.100Z,15.90
2023-01-25T19:40:15.793Z,16.00
2023-01-25T19:43:01.169Z,16.10
2023-01-25T19:45:46.550Z,16.20
2023-01-25T19:48:34.586Z,16.20
2023-01-25T19:51:21.732Z,16.30
2023-01-25T19:54:08.583Z,16.40
2023-01-25T19:56:54.728Z,16.40
2023-01-25T19:59:40.523Z,16.40
2023-01-25T20:02:26.230Z,16.40
2023-01-25T20:05:12.174Z,16.50
2023-01-25T20:07:57.781Z,16.50
2023-01-25T20:10:43.480Z,16.50
2023-01-25T20:13:29.192Z,16.40
2023-01-25T20:16:17.111Z,16.50
2023-01-25T20:19:03.304Z,16.50
2023-01-25T20:21:48.613Z,16.50
2023-01-25T20:24:34.202Z,16.60
2023-01-25T20:27:20.077Z,16.60
2023-01-25T20:30:06.439Z,16.60
2023-01-25T20:32:51.695Z,16.60
2023-01-25T20:35:37.354Z,16.60
2023-01-25T20:38:22.922Z,16.60
2023-01-25T20:41:09.928Z,16.60
2023-01-25T20:44:04.380Z,16.60
2023-01-25T20:46:51.363Z,16.60
2023-01-25T20:49:38.295Z,16.60
2023-01-25T20:52:24.234Z,16.60
2023-01-25T20:55:10.308Z,13.60
2023-01-25T20:57:56.530Z,16.60
2023-01-25T21:00:42.218Z,16.60
2023-01-25T21:03:29.955Z,16.60
2023-01-25T21:06:15.887Z,16.60
2023-01-25T21:09:01.474Z,16.60
2023-01-25T21:11:46.954Z,16.60
2023-01-25T21:14:32.534Z,16.60
2023-01-25T21:17:18.128Z,16.60
2023-01-25T21:20:03.920Z,16.60
2023-01-25T21:22:49.282Z,16.60
2023-01-25T21:25:34.907Z,16.60
2023-01-25T21:28:20.553Z,16.50
2023-01-25T21:31:07.567Z,16.50
2023-01-25T21:33:53.867Z,16.50
2023-01-25T21:36:39.644Z,16.50
2023-01-25T21:39:25.409Z,16.40
2023-01-25T21:42:11.161Z,16.40
2023-01-25T21:45:15.523Z,16.40
2023-01-25T21:48:01.044Z,16.30
2023-01-25T21:51:05.619Z,16.30
2023-01-25T21:53:51.149Z,16.30
2023-01-25T21:56:36.793Z,16.20
2023-01-25T21:59:22.737Z,16.20
2023-01-25T22:02:11.085Z,16.20
2023-01-25T22:04:56.580Z,16.20
2023-01-25T22:07:42.438Z,16.20
2023-01-25T22:10:29.955Z,15.20
2023-01-25T22:13:15.528Z,12.70
2023-01-25T22:16:01.472Z,11.20
2023-01-25T22:18:47.682Z,10.00
2023-01-25T22:21:33.075Z,9.10
2023-01-25T22:24:18.848Z,8.60
2023-01-25T22:27:43.028Z,8.10
2023-01-25T22:30:31.097Z,7.80
2023-01-25T22:33:18.576Z,7.30
2023-01-25T22:36:04.738Z,7.10
2023-01-25T22:38:50.688Z,6.90
2023-01-25T22:41:36.938Z,6.10
2023-01-25T22:44:22.579Z,5.80
2023-01-25T22:47:08.447Z,5.70
2023-01-25T22:49:54.047Z,5.80
2023-01-25T22:52:39.761Z,5.80
2023-01-25T22:55:25.433Z,5.60
2023-01-25T22:58:11.246Z,6.20
2023-01-25T23:00:56.724Z,6.10
2023-01-25T23:03:42.603Z,6.10
2023-01-25T23:06:29.461Z,6.20
2023-01-25T23:09:15.151Z,6.20
2023-01-25T23:12:00.806Z,6.30
2023-01-25T23:14:53.690Z,6.30
2023-01-25T23:17:57.891Z,6.00
2023-01-25T23:20:44.447Z,5.80
2023-01-25T23:23:30.200Z,5.80
2023-01-25T23:26:16.396Z,5.90
2023-01-25T23:29:01.738Z,5.80
2023-01-25T23:31:47.112Z,5.80
2023-01-25T23:34:34.912Z,5.60
2023-01-25T23:37:21.125Z,5.60
2023-01-25T23:40:09.065Z,5.50
2023-01-25T23:42:54.868Z,5.40
2023-01-25T23:45:41.126Z,5.40
2023-01-25T23:48:26.460Z,5.30
2023-01-25T23:51:13.536Z,5.20
2023-01-25T23:53:59.184Z,5.00
2023-01-25T23:56:44.863Z,5.00
2023-01-25T23:59:30.561Z,5.30
